Yona, Guam
Current Conditions -  °F | °C
As of 9:20 AM on Sunday 26 Oct 2014 (Local Time) from PGUM Reporting Station
Scattered Clouds Scattered Clouds  
Wind Chill: 82°   Ceiling: Unl
Heat Index: 92°   Visibility: 10mi
Dew Point: 79°   Wind: 9mph
Humidity: 89%   Direction: 90°E
Pressure: 29.93"   Gusts: NA
Location:  13.41°N, 144.77°E
Report Text: PGUM 252320Z 09008KT 10SM FEW015 SCT025 28/26 A2993 RMK AO2 RAB09E19 P0000 $
Loading
Personal Weather Stations






























Interactive Weather Map
Tropical Storm Tracking
New forecast layout! Learn more

10-Day Weather Forecast

Advertisements
Track Severe Weather on mobile